sensor_id;sensor_type;location;lat;lon;timestamp;temperature;humidity
3194;DHT22;1608;50.860;13.466;2022-10-16T00:02:10;17.00;99.90
3194;DHT22;1608;50.860;13.466;2022-10-16T00:04:37;17.00;99.90
3194;DHT22;1608;50.860;13.466;2022-10-16T06:07:55;17.00;99.90
3194;DHT22;1608;50.860;13.466;2022-10-16T06:10:21;17.10;99.90
3194;DHT22;1608;50.860;13.466;2022-10-16T06:12:48;17.10;99.90
3194;DHT22;1608;50.860;13.466;2022-10-16T06:15:15;17.10;99.90
3194;DHT22;1608;50.860;13.466;2022-10-16T06:17:41;17.10;99.90
3194;DHT22;1608;50.860;13.466;2022-10-16T06:20:09;17.10;99.90
3194;DHT22;1608;50.860;13.466;2022-10-16T06:22:35;17.10;99.90
3194;DHT22;1608;50.860;13.466;2022-10-16T06:25:04;17.20;99.90
3194;DHT22;1608;50.860;13.466;2022-10-16T06:27:31;17.20;99.90
3194;DHT22;1608;50.860;13.466;2022-10-16T06:29:58;17.30;99.90
3194;DHT22;1608;50.860;13.466;2022-10-16T06:32:24;17.50;99.90
3194;DHT22;1608;50.860;13.466;2022-10-16T06:34:51;17.60;99.90
3194;DHT22;1608;50.860;13.466;2022-10-16T06:37:18;17.80;99.90
3194;DHT22;1608;50.860;13.466;2022-10-16T06:39:44;17.90;99.90
3194;DHT22;1608;50.860;13.466;2022-10-16T06:42:12;18.00;99.90
3194;DHT22;1608;50.860;13.466;2022-10-16T06:44:39;18.10;99.90
3194;DHT22;1608;50.860;13.466;2022-10-16T06:47:06;18.20;99.90
3194;DHT22;1608;50.860;13.466;2022-10-16T06:49:32;18.30;99.90
3194;DHT22;1608;50.860;13.466;2022-10-16T06:51:59;18.40;99.90
3194;DHT22;1608;50.860;13.466;2022-10-16T06:54:27;18.40;99.90
3194;DHT22;1608;50.860;13.466;2022-10-16T06:56:54;18.50;99.90
3194;DHT22;1608;50.860;13.466;2022-10-16T06:59:23;18.60;99.90
3194;DHT22;1608;50.860;13.466;2022-10-16T07:01:49;18.70;99.90
3194;DHT22;1608;50.860;13.466;2022-10-16T07:04:16;18.70;99.90
3194;DHT22;1608;50.860;13.466;2022-10-16T07:06:43;18.60;99.90
3194;DHT22;1608;50.860;13.466;2022-10-16T07:09:10;18.60;99.90
3194;DHT22;1608;50.860;13.466;2022-10-16T07:11:38;18.60;99.90
3194;DHT22;1608;50.860;13.466;2022-10-16T07:14:12;18.50;99.90
3194;DHT22;1608;50.860;13.466;2022-10-16T07:16:42;18.50;99.90
3194;DHT22;1608;50.860;13.466;2022-10-16T07:19:09;18.50;99.90
3194;DHT22;1608;50.860;13.466;2022-10-16T07:21:37;18.70;99.90
3194;DHT22;1608;50.860;13.466;2022-10-16T07:24:05;18.90;99.90
3194;DHT22;1608;50.860;13.466;2022-10-16T07:26:34;19.10;99.90
3194;DHT22;1608;50.860;13.466;2022-10-16T07:29:01;19.20;99.90
3194;DHT22;1608;50.860;13.466;2022-10-16T07:31:28;19.30;99.90
3194;DHT22;1608;50.860;13.466;2022-10-16T07:33:58;19.40;99.90
3194;DHT22;1608;50.860;13.466;2022-10-16T07:36:25;19.40;99.90
3194;DHT22;1608;50.860;13.466;2022-10-16T07:38:52;19.50;99.90
3194;DHT22;1608;50.860;13.466;2022-10-16T07:41:19;19.60;99.90
3194;DHT22;1608;50.860;13.466;2022-10-16T07:43:46;19.70;99.90
3194;DHT22;1608;50.860;13.466;2022-10-16T07:46:13;19.80;99.90
3194;DHT22;1608;50.860;13.466;2022-10-16T07:48:42;19.80;99.90
3194;DHT22;1608;50.860;13.466;2022-10-16T07:51:13;19.90;99.90
3194;DHT22;1608;50.860;13.466;2022-10-16T07:53:40;20.10;99.90
3194;DHT22;1608;50.860;13.466;2022-10-16T07:56:07;20.30;99.90
3194;DHT22;1608;50.860;13.466;2022-10-16T07:58:35;20.60;99.90
3194;DHT22;1608;50.860;13.466;2022-10-16T08:01:04;20.70;99.90
3194;DHT22;1608;50.860;13.466;2022-10-16T08:03:31;20.80;99.90
3194;DHT22;1608;50.860;13.466;2022-10-16T08:05:58;21.30;99.90
3194;DHT22;1608;50.860;13.466;2022-10-16T08:08:27;21.30;99.90
3194;DHT22;1608;50.860;13.466;2022-10-16T08:10:54;21.40;99.90
3194;DHT22;1608;50.860;13.466;2022-10-16T08:13:21;21.30;99.90
3194;DHT22;1608;50.860;13.466;2022-10-16T08:15:47;20.90;99.90
3194;DHT22;1608;50.860;13.466;2022-10-16T08:18:14;20.90;99.90
3194;DHT22;1608;50.860;13.466;2022-10-16T08:20:42;20.80;99.90
3194;DHT22;1608;50.860;13.466;2022-10-16T08:23:10;20.80;99.90
3194;DHT22;1608;50.860;13.466;2022-10-16T08:25:39;21.10;99.90
3194;DHT22;1608;50.860;13.466;2022-10-16T08:28:06;21.10;99.90
3194;DHT22;1608;50.860;13.466;2022-10-16T08:30:33;21.20;99.90
3194;DHT22;1608;50.860;13.466;2022-10-16T08:33:00;21.30;99.90
3194;DHT22;1608;50.860;13.466;2022-10-16T08:35:27;21.30;99.90
3194;DHT22;1608;50.860;13.466;2022-10-16T08:37:54;21.40;99.90
3194;DHT22;1608;50.860;13.466;2022-10-16T08:40:24;21.40;99.90
3194;DHT22;1608;50.860;13.466;2022-10-16T08:43:11;21.40;99.90
3194;DHT22;1608;50.860;13.466;2022-10-16T08:46:02;21.30;99.90
3194;DHT22;1608;50.860;13.466;2022-10-16T08:48:34;21.20;99.90
3194;DHT22;1608;50.860;13.466;2022-10-16T08:51:03;21.40;99.90
3194;DHT22;1608;50.860;13.466;2022-10-16T08:53:34;21.40;99.90
3194;DHT22;1608;50.860;13.466;2022-10-16T08:56:03;22.10;99.90
3194;DHT22;1608;50.860;13.466;2022-10-16T08:58:32;21.70;99.90
3194;DHT22;1608;50.860;13.466;2022-10-16T09:01:01;21.60;99.90
3194;DHT22;1608;50.860;13.466;2022-10-16T09:03:37;21.40;99.90
3194;DHT22;1608;50.860;13.466;2022-10-16T09:06:26;21.40;99.90
3194;DHT22;1608;50.860;13.466;2022-10-16T09:09:10;21.40;99.90
3194;DHT22;1608;50.860;13.466;2022-10-16T09:11:46;21.30;99.90
3194;DHT22;1608;50.860;13.466;2022-10-16T09:14:32;21.30;99.90
3194;DHT22;1608;50.860;13.466;2022-10-16T09:17:15;21.30;99.90
3194;DHT22;1608;50.860;13.466;2022-10-16T09:19:52;21.40;99.90
3194;DHT22;1608;50.860;13.466;2022-10-16T09:22:22;21.60;99.90
3194;DHT22;1608;50.860;13.466;2022-10-16T09:24:51;21.90;99.90
3194;DHT22;1608;50.860;13.466;2022-10-16T09:27:18;22.10;99.90
3194;DHT22;1608;50.860;13.466;2022-10-16T09:29:46;22.10;99.90
3194;DHT22;1608;50.860;13.466;2022-10-16T09:32:17;22.10;99.90
3194;DHT22;1608;50.860;13.466;2022-10-16T09:34:48;22.00;99.90
3194;DHT22;1608;50.860;13.466;2022-10-16T09:37:18;22.20;99.90
3194;DHT22;1608;50.860;13.466;2022-10-16T09:39:47;22.30;99.90
3194;DHT22;1608;50.860;13.466;2022-10-16T09:42:16;22.50;99.90
3194;DHT22;1608;50.860;13.466;2022-10-16T09:44:48;22.80;99.90
3194;DHT22;1608;50.860;13.466;2022-10-16T09:47:18;23.00;99.90
3194;DHT22;1608;50.860;13.466;2022-10-16T09:49:53;22.90;99.90
3194;DHT22;1608;50.860;13.466;2022-10-16T09:52:22;22.90;99.90
3194;DHT22;1608;50.860;13.466;2022-10-16T09:54:50;22.80;99.90
3194;DHT22;1608;50.860;13.466;2022-10-16T09:57:18;22.90;99.90
3194;DHT22;1608;50.860;13.466;2022-10-16T09:59:49;22.90;99.90
3194;DHT22;1608;50.860;13.466;2022-10-16T10:02:19;23.00;99.90
3194;DHT22;1608;50.860;13.466;2022-10-16T10:04:50;23.00;99.90
3194;DHT22;1608;50.860;13.466;2022-10-16T10:07:23;22.90;99.90
3194;DHT22;1608;50.860;13.466;2022-10-16T10:09:50;22.90;99.90
3194;DHT22;1608;50.860;13.466;2022-10-16T10:12:20;22.90;99.90
3194;DHT22;1608;50.860;13.466;2022-10-16T10:14:50;22.90;99.90
3194;DHT22;1608;50.860;13.466;2022-10-16T10:17:19;23.00;99.90
3194;DHT22;1608;50.860;13.466;2022-10-16T10:19:52;23.00;99.90
3194;DHT22;1608;50.860;13.466;2022-10-16T10:22:23;23.00;99.90
3194;DHT22;1608;50.860;13.466;2022-10-16T10:25:15;22.90;99.90
3194;DHT22;1608;50.860;13.466;2022-10-16T10:27:53;22.90;99.90
3194;DHT22;1608;50.860;13.466;2022-10-16T10:30:29;22.80;99.90
3194;DHT22;1608;50.860;13.466;2022-10-16T10:33:22;22.60;99.90
3194;DHT22;1608;50.860;13.466;2022-10-16T10:35:56;22.70;99.90
3194;DHT22;1608;50.860;13.466;2022-10-16T10:38:31;22.80;99.90
3194;DHT22;1608;50.860;13.466;2022-10-16T10:41:17;22.90;99.90
3194;DHT22;1608;50.860;13.466;2022-10-16T10:43:57;23.00;99.90
3194;DHT22;1608;50.860;13.466;2022-10-16T10:46:34;22.90;99.90
3194;DHT22;1608;50.860;13.466;2022-10-16T10:49:13;22.80;99.90
3194;DHT22;1608;50.860;13.466;2022-10-16T10:51:53;22.60;99.90
3194;DHT22;1608;50.860;13.466;2022-10-16T10:56:42;22.80;99.90
3194;DHT22;1608;50.860;13.466;2022-10-16T10:59:33;22.90;99.90
3194;DHT22;1608;50.860;13.466;2022-10-16T11:02:10;22.90;99.90
3194;DHT22;1608;50.860;13.466;2022-10-16T11:07:54;22.80;99.90
3194;DHT22;1608;50.860;13.466;2022-10-16T11:10:23;22.80;99.90
3194;DHT22;1608;50.860;13.466;2022-10-16T11:12:56;22.80;99.90
3194;DHT22;1608;50.860;13.466;2022-10-16T11:15:28;22.80;99.90
3194;DHT22;1608;50.860;13.466;2022-10-16T11:17:59;22.80;99.90
3194;DHT22;1608;50.860;13.466;2022-10-16T11:20:28;22.90;99.90
3194;DHT22;1608;50.860;13.466;2022-10-16T11:22:59;22.90;99.90
3194;DHT22;1608;50.860;13.466;2022-10-16T11:25:29;23.00;99.90
3194;DHT22;1608;50.860;13.466;2022-10-16T11:28:03;22.90;99.90
3194;DHT22;1608;50.860;13.466;2022-10-16T11:30:40;23.00;99.90
3194;DHT22;1608;50.860;13.466;2022-10-16T11:33:22;23.00;99.90
3194;DHT22;1608;50.860;13.466;2022-10-16T11:35:54;23.10;99.90
3194;DHT22;1608;50.860;13.466;2022-10-16T11:38:28;23.00;99.90
3194;DHT22;1608;50.860;13.466;2022-10-16T11:41:00;23.30;99.90
3194;DHT22;1608;50.860;13.466;2022-10-16T11:43:34;23.50;99.90
3194;DHT22;1608;50.860;13.466;2022-10-16T11:46:07;23.40;99.90
3194;DHT22;1608;50.860;13.466;2022-10-16T11:48:38;23.40;99.90
3194;DHT22;1608;50.860;13.466;2022-10-16T11:51:13;23.50;99.90
3194;DHT22;1608;50.860;13.466;2022-10-16T11:53:46;23.30;99.90
3194;DHT22;1608;50.860;13.466;2022-10-16T11:56:17;23.20;99.90
3194;DHT22;1608;50.860;13.466;2022-10-16T11:58:52;23.20;99.90
3194;DHT22;1608;50.860;13.466;2022-10-16T12:01:27;23.20;99.90
3194;DHT22;1608;50.860;13.466;2022-10-16T12:04:04;22.90;99.90
3194;DHT22;1608;50.860;13.466;2022-10-16T12:06:34;22.60;99.90
3194;DHT22;1608;50.860;13.466;2022-10-16T12:11:34;22.50;99.90
3194;DHT22;1608;50.860;13.466;2022-10-16T12:14:17;22.70;99.90
3194;DHT22;1608;50.860;13.466;2022-10-16T12:16:52;22.80;99.90
3194;DHT22;1608;50.860;13.466;2022-10-16T12:19:19;22.80;99.90
3194;DHT22;1608;50.860;13.466;2022-10-16T12:21:47;23.00;99.90
3194;DHT22;1608;50.860;13.466;2022-10-16T12:24:22;23.10;99.90
3194;DHT22;1608;50.860;13.466;2022-10-16T12:29:31;23.20;99.90
3194;DHT22;1608;50.860;13.466;2022-10-16T12:31:59;23.30;99.90
3194;DHT22;1608;50.860;13.466;2022-10-16T12:34:29;23.70;99.90
3194;DHT22;1608;50.860;13.466;2022-10-16T12:37:06;23.60;99.90
3194;DHT22;1608;50.860;13.466;2022-10-16T12:39:34;23.60;99.90
3194;DHT22;1608;50.860;13.466;2022-10-16T12:44:36;23.90;99.90
3194;DHT22;1608;50.860;13.466;2022-10-16T12:47:03;23.90;99.90
3194;DHT22;1608;50.860;13.466;2022-10-16T12:49:36;24.00;99.90
3194;DHT22;1608;50.860;13.466;2022-10-16T12:52:04;24.00;99.90
3194;DHT22;1608;50.860;13.466;2022-10-16T12:54:35;24.00;99.90
3194;DHT22;1608;50.860;13.466;2022-10-16T12:57:19;24.00;99.90
3194;DHT22;1608;50.860;13.466;2022-10-16T12:59:58;24.10;99.90
3194;DHT22;1608;50.860;13.466;2022-10-16T13:05:35;23.80;99.90
3194;DHT22;1608;50.860;13.466;2022-10-16T13:11:03;23.40;99.90
3194;DHT22;1608;50.860;13.466;2022-10-16T13:16:34;23.30;99.90
3194;DHT22;1608;50.860;13.466;2022-10-16T13:19:14;23.30;99.90
3194;DHT22;1608;50.860;13.466;2022-10-16T13:21:46;23.40;99.90
3194;DHT22;1608;50.860;13.466;2022-10-16T13:24:25;23.50;99.90
3194;DHT22;1608;50.860;13.466;2022-10-16T13:26:57;23.60;99.90
3194;DHT22;1608;50.860;13.466;2022-10-16T13:29:30;23.60;99.90
3194;DHT22;1608;50.860;13.466;2022-10-16T13:32:01;23.80;99.90
3194;DHT22;1608;50.860;13.466;2022-10-16T13:37:00;23.90;99.90
3194;DHT22;1608;50.860;13.466;2022-10-16T13:39:28;23.90;99.90
3194;DHT22;1608;50.860;13.466;2022-10-16T13:42:01;23.90;99.90
3194;DHT22;1608;50.860;13.466;2022-10-16T13:44:35;23.80;99.90
3194;DHT22;1608;50.860;13.466;2022-10-16T13:47:03;23.50;99.90
3194;DHT22;1608;50.860;13.466;2022-10-16T13:49:30;23.60;99.90
3194;DHT22;1608;50.860;13.466;2022-10-16T13:51:59;23.50;99.90
3194;DHT22;1608;50.860;13.466;2022-10-16T13:54:27;23.50;99.90
3194;DHT22;1608;50.860;13.466;2022-10-16T13:56:55;23.70;99.90
3194;DHT22;1608;50.860;13.466;2022-10-16T13:59:27;23.70;99.90
3194;DHT22;1608;50.860;13.466;2022-10-16T14:01:59;23.70;99.90
3194;DHT22;1608;50.860;13.466;2022-10-16T14:04:33;23.50;99.90
3194;DHT22;1608;50.860;13.466;2022-10-16T14:07:00;23.40;99.90
3194;DHT22;1608;50.860;13.466;2022-10-16T14:09:28;23.40;99.90
3194;DHT22;1608;50.860;13.466;2022-10-16T14:11:56;23.20;99.90
3194;DHT22;1608;50.860;13.466;2022-10-16T14:14:25;23.20;99.90
3194;DHT22;1608;50.860;13.466;2022-10-16T14:16:53;23.30;99.90
3194;DHT22;1608;50.860;13.466;2022-10-16T14:19:21;23.20;99.90
3194;DHT22;1608;50.860;13.466;2022-10-16T14:21:50;23.10;99.90
3194;DHT22;1608;50.860;13.466;2022-10-16T14:29:24;23.00;99.90
3194;DHT22;1608;50.860;13.466;2022-10-16T14:31:55;22.80;99.90
3194;DHT22;1608;50.860;13.466;2022-10-16T14:34:28;22.30;99.90
3194;DHT22;1608;50.860;13.466;2022-10-16T14:36:59;22.90;99.90
3194;DHT22;1608;50.860;13.466;2022-10-16T14:39:28;22.80;99.90
3194;DHT22;1608;50.860;13.466;2022-10-16T14:41:56;22.80;99.90
3194;DHT22;1608;50.860;13.466;2022-10-16T14:44:28;22.90;99.90
3194;DHT22;1608;50.860;13.466;2022-10-16T14:46:56;22.90;99.90
3194;DHT22;1608;50.860;13.466;2022-10-16T14:49:25;22.90;99.90
3194;DHT22;1608;50.860;13.466;2022-10-16T14:51:53;22.90;99.90
3194;DHT22;1608;50.860;13.466;2022-10-16T14:54:21;22.90;99.90
3194;DHT22;1608;50.860;13.466;2022-10-16T14:56:50;22.70;99.90
3194;DHT22;1608;50.860;13.466;2022-10-16T14:59:20;22.70;99.90
3194;DHT22;1608;50.860;13.466;2022-10-16T15:01:49;22.50;99.90
3194;DHT22;1608;50.860;13.466;2022-10-16T15:04:16;22.40;99.90
3194;DHT22;1608;50.860;13.466;2022-10-16T15:06:44;22.20;99.90
3194;DHT22;1608;50.860;13.466;2022-10-16T15:09:11;22.20;99.90
3194;DHT22;1608;50.860;13.466;2022-10-16T15:11:39;22.20;99.90
3194;DHT22;1608;50.860;13.466;2022-10-16T15:14:08;22.30;99.90
3194;DHT22;1608;50.860;13.466;2022-10-16T15:16:35;22.20;99.90
3194;DHT22;1608;50.860;13.466;2022-10-16T15:19:01;22.20;99.90
3194;DHT22;1608;50.860;13.466;2022-10-16T15:21:30;19.50;99.90
3194;DHT22;1608;50.860;13.466;2022-10-16T15:23:57;22.20;99.90
3194;DHT22;1608;50.860;13.466;2022-10-16T15:26:25;22.10;99.90
3194;DHT22;1608;50.860;13.466;2022-10-16T15:28:53;22.10;99.90
3194;DHT22;1608;50.860;13.466;2022-10-16T15:31:21;22.00;99.90
3194;DHT22;1608;50.860;13.466;2022-10-16T15:33:49;22.00;99.90
3194;DHT22;1608;50.860;13.466;2022-10-16T15:36:25;21.80;99.90
3194;DHT22;1608;50.860;13.466;2022-10-16T15:38:52;21.80;99.90
3194;DHT22;1608;50.860;13.466;2022-10-16T15:41:19;21.70;99.90
3194;DHT22;1608;50.860;13.466;2022-10-16T15:43:47;21.80;99.90
3194;DHT22;1608;50.860;13.466;2022-10-16T15:46:18;21.30;99.90
3194;DHT22;1608;50.860;13.466;2022-10-16T15:48:45;21.40;99.90
3194;DHT22;1608;50.860;13.466;2022-10-16T15:51:12;21.00;99.90
3194;DHT22;1608;50.860;13.466;2022-10-16T15:53:39;21.20;99.90
3194;DHT22;1608;50.860;13.466;2022-10-16T15:56:07;21.10;99.90
3194;DHT22;1608;50.860;13.466;2022-10-16T16:03:31;20.90;99.90
3194;DHT22;1608;50.860;13.466;2022-10-16T16:06:03;20.80;99.90
3194;DHT22;1608;50.860;13.466;2022-10-16T16:10:58;20.60;99.90
3194;DHT22;1608;50.860;13.466;2022-10-16T16:13:25;20.20;99.90
3194;DHT22;1608;50.860;13.466;2022-10-16T16:18:19;20.40;99.90
3194;DHT22;1608;50.860;13.466;2022-10-16T16:20:47;20.30;99.90
3194;DHT22;1608;50.860;13.466;2022-10-16T16:23:14;20.20;99.90
3194;DHT22;1608;50.860;13.466;2022-10-16T16:25:40;19.90;99.90
3194;DHT22;1608;50.860;13.466;2022-10-16T16:28:07;19.60;99.90
3194;DHT22;1608;50.860;13.466;2022-10-16T16:33:03;19.40;99.90
3194;DHT22;1608;50.860;13.466;2022-10-16T16:37:58;19.60;99.90
3194;DHT22;1608;50.860;13.466;2022-10-16T16:40:25;19.20;99.90
3194;DHT22;1608;50.860;13.466;2022-10-16T16:47:47;19.60;99.90
3194;DHT22;1608;50.860;13.466;2022-10-16T16:50:13;19.00;99.90
3194;DHT22;1608;50.860;13.466;2022-10-16T16:52:40;19.40;99.90
3194;DHT22;1608;50.860;13.466;2022-10-16T16:55:09;19.10;99.90
3194;DHT22;1608;50.860;13.466;2022-10-16T16:57:35;19.20;99.90
3194;DHT22;1608;50.860;13.466;2022-10-16T17:00:03;18.80;99.90
3194;DHT22;1608;50.860;13.466;2022-10-16T17:02:30;18.30;99.90
3194;DHT22;1608;50.860;13.466;2022-10-16T17:04:58;19.10;99.90
3194;DHT22;1608;50.860;13.466;2022-10-16T17:12:21;18.50;99.90
3194;DHT22;1608;50.860;13.466;2022-10-16T17:14:50;18.50;99.90
3194;DHT22;1608;50.860;13.466;2022-10-16T17:22:11;18.60;99.90
3194;DHT22;1608;50.860;13.466;2022-10-16T17:24:38;18.20;99.90
3194;DHT22;1608;50.860;13.466;2022-10-16T17:27:04;18.10;99.90
3194;DHT22;1608;50.860;13.466;2022-10-16T17:29:32;18.40;99.90
3194;DHT22;1608;50.860;13.466;2022-10-16T17:39:22;18.00;99.90
3194;DHT22;1608;50.860;13.466;2022-10-16T17:44:16;17.90;99.90
3194;DHT22;1608;50.860;13.466;2022-10-16T17:46:48;17.90;99.90
3194;DHT22;1608;50.860;13.466;2022-10-16T17:49:16;17.80;99.90
3194;DHT22;1608;50.860;13.466;2022-10-16T17:56:39;18.00;99.90
3194;DHT22;1608;50.860;13.466;2022-10-16T18:01:34;17.60;99.90
3194;DHT22;1608;50.860;13.466;2022-10-16T18:04:04;18.00;99.90
3194;DHT22;1608;50.860;13.466;2022-10-16T18:09:14;17.90;99.90
3194;DHT22;1608;50.860;13.466;2022-10-16T18:11:42;17.60;99.90
3194;DHT22;1608;50.860;13.466;2022-10-16T18:14:11;17.80;99.90
3194;DHT22;1608;50.860;13.466;2022-10-16T18:16:39;18.00;99.90
3194;DHT22;1608;50.860;13.466;2022-10-16T18:19:09;17.60;99.90
3194;DHT22;1608;50.860;13.466;2022-10-16T18:24:03;17.40;99.90
3194;DHT22;1608;50.860;13.466;2022-10-16T18:33:52;17.60;99.90
3194;DHT22;1608;50.860;13.466;2022-10-16T18:36:23;17.80;99.90
3194;DHT22;1608;50.860;13.466;2022-10-16T18:38:51;17.80;99.90
3194;DHT22;1608;50.860;13.466;2022-10-16T18:41:18;17.60;99.90
3194;DHT22;1608;50.860;13.466;2022-10-16T18:46:13;17.70;99.90
3194;DHT22;1608;50.860;13.466;2022-10-16T18:48:41;18.20;99.90
3194;DHT22;1608;50.860;13.466;2022-10-16T18:51:10;18.00;99.90
3194;DHT22;1608;50.860;13.466;2022-10-16T18:53:39;17.70;99.90
3194;DHT22;1608;50.860;13.466;2022-10-16T18:58:35;19.20;99.90
3194;DHT22;1608;50.860;13.466;2022-10-16T19:01:03;17.50;99.90
3194;DHT22;1608;50.860;13.466;2022-10-16T19:05:59;17.80;99.90
3194;DHT22;1608;50.860;13.466;2022-10-16T19:10:55;17.50;99.90
3194;DHT22;1608;50.860;13.466;2022-10-16T19:18:17;17.60;99.90
3194;DHT22;1608;50.860;13.466;2022-10-16T19:23:12;17.40;99.90
3194;DHT22;1608;50.860;13.466;2022-10-16T19:28:07;17.70;99.90
3194;DHT22;1608;50.860;13.466;2022-10-16T19:30:37;17.70;99.90
3194;DHT22;1608;50.860;13.466;2022-10-16T19:33:05;17.60;99.90
3194;DHT22;1608;50.860;13.466;2022-10-16T19:35:32;17.60;99.90
3194;DHT22;1608;50.860;13.466;2022-10-16T19:37:59;17.60;99.90
3194;DHT22;1608;50.860;13.466;2022-10-16T19:45:21;17.80;99.90
3194;DHT22;1608;50.860;13.466;2022-10-16T19:47:48;18.30;99.90
3194;DHT22;1608;50.860;13.466;2022-10-16T20:00:07;18.10;99.90
3194;DHT22;1608;50.860;13.466;2022-10-16T20:07:29;18.30;99.90
3194;DHT22;1608;50.860;13.466;2022-10-16T20:12:23;18.50;99.90
3194;DHT22;1608;50.860;13.466;2022-10-16T20:19:45;18.50;99.90
3194;DHT22;1608;50.860;13.466;2022-10-16T20:27:06;18.60;99.90
3194;DHT22;1608;50.860;13.466;2022-10-16T20:29:33;18.60;99.90
3194;DHT22;1608;50.860;13.466;2022-10-16T20:36:55;18.40;99.90
3194;DHT22;1608;50.860;13.466;2022-10-16T20:49:10;18.40;99.90
3194;DHT22;1608;50.860;13.466;2022-10-16T20:54:05;18.20;99.90
3194;DHT22;1608;50.860;13.466;2022-10-16T20:56:34;18.10;99.90
3194;DHT22;1608;50.860;13.466;2022-10-16T20:59:01;18.40;99.90
3194;DHT22;1608;50.860;13.466;2022-10-16T21:03:57;18.00;99.90
3194;DHT22;1608;50.860;13.466;2022-10-16T21:06:24;18.00;99.90
3194;DHT22;1608;50.860;13.466;2022-10-16T21:08:51;18.00;99.90
3194;DHT22;1608;50.860;13.466;2022-10-16T21:11:21;17.80;99.90
3194;DHT22;1608;50.860;13.466;2022-10-16T21:13:51;17.50;99.90
3194;DHT22;1608;50.860;13.466;2022-10-16T21:16:18;17.30;99.90
3194;DHT22;1608;50.860;13.466;2022-10-16T21:18:44;17.20;99.90
3194;DHT22;1608;50.860;13.466;2022-10-16T21:21:18;17.00;99.90
3194;DHT22;1608;50.860;13.466;2022-10-16T21:28:40;17.00;99.90
3194;DHT22;1608;50.860;13.466;2022-10-16T21:31:11;17.10;99.90
3194;DHT22;1608;50.860;13.466;2022-10-16T21:33:38;17.20;99.90
3194;DHT22;1608;50.860;13.466;2022-10-16T21:36:12;16.90;99.90
3194;DHT22;1608;50.860;13.466;2022-10-16T21:38:39;17.00;99.90
3194;DHT22;1608;50.860;13.466;2022-10-16T21:41:11;17.00;99.90
3194;DHT22;1608;50.860;13.466;2022-10-16T21:43:39;17.10;99.90
3194;DHT22;1608;50.860;13.466;2022-10-16T21:46:06;16.40;99.90
3194;DHT22;1608;50.860;13.466;2022-10-16T21:48:33;17.00;99.90
3194;DHT22;1608;50.860;13.466;2022-10-16T21:51:00;16.80;99.90
3194;DHT22;1608;50.860;13.466;2022-10-16T21:53:26;16.80;99.90
3194;DHT22;1608;50.860;13.466;2022-10-16T21:55:53;16.50;99.90
3194;DHT22;1608;50.860;13.466;2022-10-16T21:58:20;16.50;99.90
3194;DHT22;1608;50.860;13.466;2022-10-16T22:00:48;16.50;99.90
3194;DHT22;1608;50.860;13.466;2022-10-16T22:03:15;16.50;99.90
3194;DHT22;1608;50.860;13.466;2022-10-16T22:05:41;16.70;99.90
3194;DHT22;1608;50.860;13.466;2022-10-16T22:10:35;16.60;99.90
3194;DHT22;1608;50.860;13.466;2022-10-16T22:13:02;16.90;99.90
3194;DHT22;1608;50.860;13.466;2022-10-16T22:15:28;16.50;99.90
3194;DHT22;1608;50.860;13.466;2022-10-16T22:17:56;16.80;99.90
3194;DHT22;1608;50.860;13.466;2022-10-16T22:20:23;17.00;99.90
3194;DHT22;1608;50.860;13.466;2022-10-16T22:22:50;17.00;99.90
3194;DHT22;1608;50.860;13.466;2022-10-16T22:25:16;16.40;99.90
3194;DHT22;1608;50.860;13.466;2022-10-16T22:27:43;16.80;99.90
3194;DHT22;1608;50.860;13.466;2022-10-16T22:30:10;17.00;99.90
3194;DHT22;1608;50.860;13.466;2022-10-16T22:32:37;17.50;99.90
3194;DHT22;1608;50.860;13.466;2022-10-16T22:35:06;16.70;99.90
3194;DHT22;1608;50.860;13.466;2022-10-16T22:37:33;16.70;99.90
3194;DHT22;1608;50.860;13.466;2022-10-16T22:40:00;16.80;99.90
3194;DHT22;1608;50.860;13.466;2022-10-16T22:42:26;16.60;99.90
3194;DHT22;1608;50.860;13.466;2022-10-16T22:44:53;16.70;99.90
3194;DHT22;1608;50.860;13.466;2022-10-16T22:47:20;16.30;99.90
3194;DHT22;1608;50.860;13.466;2022-10-16T22:49:46;16.30;99.90
3194;DHT22;1608;50.860;13.466;2022-10-16T22:52:14;16.30;99.90
3194;DHT22;1608;50.860;13.466;2022-10-16T22:57:08;16.30;99.90
3194;DHT22;1608;50.860;13.466;2022-10-16T22:59:35;16.40;99.90
3194;DHT22;1608;50.860;13.466;2022-10-16T23:04:30;16.20;99.90
3194;DHT22;1608;50.860;13.466;2022-10-16T23:06:57;16.20;99.90
3194;DHT22;1608;50.860;13.466;2022-10-16T23:09:25;15.90;99.90
3194;DHT22;1608;50.860;13.466;2022-10-16T23:14:20;15.90;99.90
3194;DHT22;1608;50.860;13.466;2022-10-16T23:19:14;15.40;99.90
3194;DHT22;1608;50.860;13.466;2022-10-16T23:21:41;15.80;99.90
3194;DHT22;1608;50.860;13.466;2022-10-16T23:24:08;16.10;99.90
3194;DHT22;1608;50.860;13.466;2022-10-16T23:26:36;15.80;99.90
3194;DHT22;1608;50.860;13.466;2022-10-16T23:29:03;15.30;99.90
3194;DHT22;1608;50.860;13.466;2022-10-16T23:31:30;15.80;99.90
3194;DHT22;1608;50.860;13.466;2022-10-16T23:33:58;15.90;99.90
3194;DHT22;1608;50.860;13.466;2022-10-16T23:38:53;15.70;99.90
3194;DHT22;1608;50.860;13.466;2022-10-16T23:41:20;16.00;99.90
3194;DHT22;1608;50.860;13.466;2022-10-16T23:43:49;15.80;99.90
3194;DHT22;1608;50.860;13.466;2022-10-16T23:46:16;16.00;99.90
3194;DHT22;1608;50.860;13.466;2022-10-16T23:48:43;15.90;99.90
3194;DHT22;1608;50.860;13.466;2022-10-16T23:51:10;15.70;99.90
3194;DHT22;1608;50.860;13.466;2022-10-16T23:53:37;15.90;99.90
3194;DHT22;1608;50.860;13.466;2022-10-16T23:56:04;15.90;99.90
